createdAt,value
2019-05-20T00:00:10.178Z,4.23
2019-05-20T00:03:13.417Z,3.30
2019-05-20T00:06:16.336Z,3.30
2019-05-20T00:09:19.325Z,4.13
2019-05-20T00:12:22.263Z,3.07
2019-05-20T00:15:25.264Z,4.27
2019-05-20T00:18:28.298Z,3.93
2019-05-20T00:21:31.275Z,4.30
2019-05-20T00:24:34.251Z,3.80
2019-05-20T00:27:37.273Z,3.93
2019-05-20T00:30:40.314Z,3.97
2019-05-20T00:33:43.344Z,4.40
2019-05-20T00:36:46.378Z,4.83
2019-05-20T00:39:49.306Z,4.20
2019-05-20T00:42:52.228Z,3.60
2019-05-20T00:45:55.134Z,4.50
2019-05-20T00:48:58.052Z,4.30
2019-05-20T00:52:00.980Z,4.10
2019-05-20T00:55:04.997Z,4.20
2019-05-20T00:58:08.427Z,6.00
2019-05-20T01:01:11.417Z,4.60
2019-05-20T01:04:14.327Z,4.27
2019-05-20T01:07:17.256Z,4.57
2019-05-20T01:10:20.197Z,5.10
2019-05-20T01:13:23.118Z,5.10
2019-05-20T01:16:26.048Z,5.90
2019-05-20T01:19:29.259Z,5.67
2019-05-20T01:22:32.172Z,5.53
2019-05-20T01:25:35.087Z,6.20
2019-05-20T01:28:38.307Z,5.97
2019-05-20T01:31:41.605Z,7.67
2019-05-20T01:34:44.536Z,6.90
2019-05-20T01:37:47.457Z,6.63
2019-05-20T01:40:50.448Z,6.50
2019-05-20T01:43:53.435Z,7.00
2019-05-20T01:46:56.332Z,6.30
2019-05-20T01:49:59.255Z,7.57
2019-05-20T01:53:02.164Z,7.23
2019-05-20T01:56:05.183Z,7.43
2019-05-20T01:59:08.218Z,8.30
2019-05-20T02:02:11.145Z,7.30
2019-05-20T02:05:14.268Z,7.50
2019-05-20T02:08:17.178Z,8.40
2019-05-20T02:11:20.089Z,7.60
2019-05-20T02:14:26.245Z,7.63
2019-05-20T02:17:29.172Z,8.30
2019-05-20T02:20:32.100Z,7.80
2019-05-20T02:23:34.995Z,7.40
2019-05-20T02:26:37.921Z,7.93
2019-05-20T02:29:40.824Z,7.80
2019-05-20T02:32:43.870Z,9.00
2019-05-20T02:35:46.860Z,9.53
2019-05-20T02:38:49.745Z,8.40
2019-05-20T02:41:52.681Z,8.23
2019-05-20T02:44:55.588Z,9.97
2019-05-20T02:47:58.859Z,8.33
2019-05-20T02:51:01.764Z,9.07
2019-05-20T02:54:04.692Z,9.60
2019-05-20T02:57:07.624Z,10.33
2019-05-20T03:00:11.541Z,9.90
2019-05-20T03:03:14.786Z,10.23
2019-05-20T03:06:17.695Z,9.47
2019-05-20T03:09:21.731Z,10.13
2019-05-20T03:12:25.131Z,11.57
2019-05-20T03:15:28.075Z,12.33
2019-05-20T03:18:31.255Z,11.10
2019-05-20T03:21:34.223Z,12.93
2019-05-20T03:24:37.166Z,15.90
2019-05-20T03:27:40.114Z,12.60
2019-05-20T03:30:43.678Z,14.10
2019-05-20T03:33:46.706Z,13.83
2019-05-20T03:36:49.967Z,14.00
2019-05-20T03:39:52.890Z,16.97
2019-05-20T03:42:56.106Z,15.70
2019-05-20T03:45:59.029Z,17.40
2019-05-20T03:49:01.956Z,15.97
2019-05-20T03:52:04.872Z,16.40
2019-05-20T03:55:08.121Z,17.20
2019-05-20T03:58:13.607Z,19.50
2019-05-20T04:01:16.956Z,19.60
2019-05-20T04:04:20.194Z,20.20
2019-05-20T04:07:23.106Z,21.37
2019-05-20T04:10:26.035Z,22.03
2019-05-20T04:13:28.966Z,21.33
2019-05-20T04:16:32.236Z,20.83
2019-05-20T04:19:35.145Z,20.30
2019-05-20T04:22:38.075Z,22.10
2019-05-20T04:25:41.014Z,21.70
2019-05-20T04:28:43.911Z,21.70
2019-05-20T04:31:48.339Z,19.37
2019-05-20T04:34:51.364Z,20.30
2019-05-20T04:37:54.306Z,19.50
2019-05-20T04:40:57.248Z,19.40
2019-05-20T04:44:00.548Z,20.70
2019-05-20T04:47:03.487Z,19.80
2019-05-20T04:50:06.598Z,19.87
2019-05-20T04:53:09.800Z,19.73
2019-05-20T04:56:12.815Z,19.50
2019-05-20T04:59:15.723Z,17.47
2019-05-20T05:02:18.668Z,18.43
2019-05-20T05:05:36.843Z,17.80
2019-05-20T05:08:26.427Z,18.97
2019-05-20T05:11:29.360Z,19.77
2019-05-20T05:14:32.354Z,19.07
2019-05-20T05:17:35.396Z,21.13
2019-05-20T05:20:38.301Z,20.50
2019-05-20T05:23:41.244Z,19.30
2019-05-20T05:26:47.566Z,20.93
2019-05-20T05:29:48.980Z,22.50
2019-05-20T05:32:51.924Z,20.50
2019-05-20T05:35:55.514Z,22.37
2019-05-20T05:38:58.438Z,22.23
2019-05-20T05:42:01.343Z,21.30
2019-05-20T05:45:04.565Z,23.70
2019-05-20T05:48:07.493Z,23.00
2019-05-20T05:51:10.416Z,20.87
2019-05-20T05:54:13.340Z,19.87
2019-05-20T05:57:16.282Z,21.67
2019-05-20T06:00:19.721Z,20.07
2019-05-20T06:03:22.645Z,20.10
2019-05-20T06:06:25.622Z,19.13
2019-05-20T06:09:28.538Z,20.97
2019-05-20T06:12:31.470Z,20.83
2019-05-20T06:15:34.380Z,22.47
2019-05-20T06:18:37.312Z,23.03
2019-05-20T06:21:40.221Z,21.27
2019-05-20T06:24:43.143Z,21.07
2019-05-20T06:27:46.103Z,22.00
2019-05-20T06:30:49.036Z,19.90
2019-05-20T06:33:51.970Z,20.17
2019-05-20T06:36:57.776Z,21.90
2019-05-20T06:40:00.741Z,21.07
2019-05-20T06:43:03.772Z,21.13
2019-05-20T06:46:06.706Z,22.67
2019-05-20T06:49:09.674Z,20.77
2019-05-20T06:52:12.690Z,19.93
2019-05-20T06:55:15.604Z,22.07
2019-05-20T06:58:18.626Z,22.10
2019-05-20T07:01:21.599Z,23.33
2019-05-20T07:04:25.157Z,21.37
2019-05-20T07:07:29.194Z,19.70
2019-05-20T07:10:32.327Z,17.83
2019-05-20T07:13:35.326Z,22.37
2019-05-20T07:16:38.250Z,21.30
2019-05-20T07:19:41.530Z,18.60
2019-05-20T07:22:55.375Z,20.30
2019-05-20T07:25:49.409Z,19.50
2019-05-20T07:28:52.416Z,19.87
2019-05-20T07:31:55.387Z,20.50
2019-05-20T07:34:59.408Z,22.03
2019-05-20T07:38:02.345Z,21.60
2019-05-20T07:41:05.361Z,22.53
2019-05-20T07:44:08.366Z,22.50
2019-05-20T07:47:11.478Z,19.00
2019-05-20T07:50:15.218Z,22.80
2019-05-20T07:53:18.849Z,23.87
2019-05-20T07:56:27.732Z,21.30
2019-05-20T07:59:33.318Z,24.00
2019-05-20T08:02:36.750Z,22.50
2019-05-20T08:05:39.653Z,24.03
2019-05-20T08:08:42.599Z,26.10
2019-05-20T08:11:45.542Z,24.97
2019-05-20T08:14:48.582Z,27.40
2019-05-20T08:17:51.504Z,25.70
2019-05-20T08:20:54.429Z,25.37
2019-05-20T08:23:57.355Z,26.43
2019-05-20T08:27:00.265Z,27.87
2019-05-20T08:30:04.121Z,25.77
2019-05-20T08:33:09.468Z,23.70
2019-05-20T08:36:12.387Z,23.80
2019-05-20T08:39:15.306Z,26.23
2019-05-20T08:42:18.230Z,23.57
2019-05-20T08:45:21.620Z,25.10
2019-05-20T08:48:24.566Z,25.40
2019-05-20T08:51:27.478Z,23.60
2019-05-20T08:54:30.402Z,23.73
2019-05-20T08:57:33.355Z,22.33
2019-05-20T09:00:36.257Z,21.07
2019-05-20T09:03:39.173Z,22.23
2019-05-20T09:06:42.828Z,20.77
2019-05-20T09:09:45.773Z,20.60
2019-05-20T09:12:49.020Z,20.13
2019-05-20T09:15:52.043Z,19.90
2019-05-20T09:18:54.981Z,22.53
2019-05-20T09:21:57.891Z,21.70
2019-05-20T09:25:00.911Z,18.40
2019-05-20T09:28:05.404Z,19.97
2019-05-20T09:31:08.739Z,20.13
2019-05-20T09:34:11.763Z,18.83
2019-05-20T09:37:14.681Z,16.20
2019-05-20T09:40:43.774Z,17.57
2019-05-20T09:43:46.678Z,16.70
2019-05-20T09:46:49.604Z,17.07
2019-05-20T09:49:52.540Z,20.90
2019-05-20T09:52:55.760Z,16.17
2019-05-20T09:55:58.787Z,18.73
2019-05-20T09:59:01.692Z,21.67
2019-05-20T10:02:04.710Z,23.83
2019-05-20T10:05:07.723Z,23.60
2019-05-20T10:08:10.660Z,21.97
2019-05-20T10:11:13.861Z,23.00
2019-05-20T10:14:16.766Z,22.10
2019-05-20T10:17:19.701Z,23.13
2019-05-20T10:20:22.610Z,22.90
2019-05-20T10:23:25.558Z,23.50
2019-05-20T10:26:28.491Z,24.40
2019-05-20T10:29:31.439Z,24.77
2019-05-20T10:32:34.377Z,21.77
2019-05-20T10:35:37.510Z,22.30
2019-05-20T10:38:56.910Z,23.67
2019-05-20T10:41:45.784Z,21.40
2019-05-20T10:44:48.764Z,22.83
2019-05-20T10:47:51.705Z,22.53
2019-05-20T10:50:54.646Z,22.80
2019-05-20T10:53:58.475Z,20.30
2019-05-20T10:57:01.381Z,20.57
2019-05-20T11:00:06.935Z,20.27
2019-05-20T11:03:09.872Z,21.73
2019-05-20T11:06:12.912Z,22.40
2019-05-20T11:09:15.908Z,19.70
2019-05-20T11:12:18.850Z,21.30
2019-05-20T11:15:21.831Z,18.63
2019-05-20T11:18:24.862Z,19.43
2019-05-20T11:21:27.760Z,17.90
2019-05-20T11:24:30.701Z,18.63
2019-05-20T11:27:33.640Z,17.47
2019-05-20T11:30:38.854Z,17.80
2019-05-20T11:33:41.762Z,16.13
2019-05-20T11:36:45.074Z,16.60
2019-05-20T11:39:48.109Z,19.53
2019-05-20T11:42:51.068Z,18.70
2019-05-20T11:45:54.014Z,18.37
2019-05-20T11:48:58.043Z,17.50
2019-05-20T11:52:02.075Z,16.37
2019-05-20T11:55:06.288Z,18.37
2019-05-20T11:58:15.660Z,17.93
2019-05-20T12:01:14.078Z,15.50
2019-05-20T12:04:18.126Z,19.13
2019-05-20T12:07:21.087Z,15.70
2019-05-20T12:10:23.988Z,18.83
2019-05-20T12:13:27.340Z,19.70
2019-05-20T12:16:30.279Z,13.87
2019-05-20T12:19:33.287Z,17.50
2019-05-20T12:22:36.245Z,18.53
2019-05-20T12:25:39.201Z,15.30
2019-05-20T12:28:44.388Z,16.27
2019-05-20T12:31:47.315Z,16.90
2019-05-20T12:34:50.246Z,16.43
2019-05-20T12:37:53.423Z,16.80
2019-05-20T12:40:56.324Z,18.33
2019-05-20T12:44:10.928Z,15.87
2019-05-20T12:47:04.093Z,16.23
2019-05-20T12:50:07.952Z,16.50
2019-05-20T12:53:11.860Z,15.03
2019-05-20T12:56:19.064Z,15.40
2019-05-20T12:59:19.968Z,14.00
2019-05-20T13:02:22.881Z,16.90
2019-05-20T13:05:25.812Z,14.13
2019-05-20T13:08:28.739Z,15.17
2019-05-20T13:11:31.690Z,15.63
2019-05-20T13:14:34.650Z,17.90
2019-05-20T13:17:43.394Z,17.50
2019-05-20T13:20:42.594Z,16.60
2019-05-20T13:23:48.818Z,17.60
2019-05-20T13:26:50.389Z,17.67
2019-05-20T13:29:53.360Z,17.90
2019-05-20T13:32:56.298Z,14.30
2019-05-20T13:35:59.267Z,15.60
2019-05-20T13:39:04.164Z,17.47
2019-05-20T13:42:07.225Z,17.30
2019-05-20T13:45:10.725Z,15.10
2019-05-20T13:48:14.791Z,19.00
2019-05-20T13:51:18.585Z,16.63
2019-05-20T13:54:21.532Z,20.07
2019-05-20T13:57:24.486Z,17.83
2019-05-20T14:00:27.492Z,18.50
2019-05-20T14:03:30.794Z,19.77
2019-05-20T14:06:33.719Z,21.83
2019-05-20T14:09:36.669Z,19.33
2019-05-20T14:12:39.582Z,20.10
2019-05-20T14:15:42.528Z,19.57
2019-05-20T14:18:45.528Z,20.10
2019-05-20T14:21:48.459Z,20.07
2019-05-20T14:24:51.469Z,18.90
2019-05-20T14:27:54.498Z,19.70
2019-05-20T14:30:57.450Z,20.80
2019-05-20T14:34:00.333Z,20.40
2019-05-20T14:37:03.406Z,21.13
2019-05-20T14:40:06.994Z,21.87
2019-05-20T14:43:11.083Z,21.17
2019-05-20T14:46:14.018Z,21.33
2019-05-20T14:49:17.040Z,19.83
2019-05-20T14:52:19.989Z,20.07
2019-05-20T14:55:23.371Z,20.17
2019-05-20T14:58:26.743Z,20.43
2019-05-20T15:01:29.792Z,19.47
2019-05-20T15:04:33.106Z,20.17
2019-05-20T15:07:36.144Z,19.30
2019-05-20T15:10:39.051Z,21.33
2019-05-20T15:13:42.346Z,21.63
2019-05-20T15:16:45.681Z,19.93
2019-05-20T15:19:48.602Z,24.10
2019-05-20T15:22:52.522Z,17.97
2019-05-20T15:25:55.418Z,19.97
2019-05-20T15:28:58.346Z,19.70
2019-05-20T15:32:01.575Z,17.63
2019-05-20T15:35:05.511Z,17.53
2019-05-20T15:38:08.452Z,17.50
2019-05-20T15:41:11.367Z,20.33
2019-05-20T15:44:14.309Z,19.30
2019-05-20T15:47:18.946Z,19.03
2019-05-20T15:50:22.543Z,19.67
2019-05-20T15:53:25.567Z,19.57
2019-05-20T15:56:28.488Z,16.40
2019-05-20T15:59:44.711Z,18.07
2019-05-20T16:02:36.287Z,17.90
2019-05-20T16:05:39.211Z,19.57
2019-05-20T16:08:42.113Z,16.87
2019-05-20T16:11:45.143Z,18.80
2019-05-20T16:14:51.317Z,18.37
2019-05-20T16:17:53.085Z,16.63
2019-05-20T16:20:56.113Z,15.53
2019-05-20T16:23:59.313Z,14.10
2019-05-20T16:27:02.253Z,15.77
2019-05-20T16:30:07.537Z,15.77
2019-05-20T16:33:10.802Z,16.07
2019-05-20T16:36:13.830Z,16.03
2019-05-20T16:39:16.949Z,17.30
2019-05-20T16:42:20.149Z,16.13
2019-05-20T16:45:23.337Z,14.90
2019-05-20T16:48:26.240Z,15.83
2019-05-20T16:51:29.367Z,15.90
2019-05-20T16:54:32.301Z,15.17
2019-05-20T16:57:35.411Z,15.57
2019-05-20T17:00:38.756Z,16.63
2019-05-20T17:03:41.800Z,16.27
2019-05-20T17:06:44.740Z,15.00
2019-05-20T17:09:47.840Z,16.73
2019-05-20T17:12:50.791Z,15.87
2019-05-20T17:15:53.728Z,18.00
2019-05-20T17:18:56.644Z,16.10
2019-05-20T17:21:59.569Z,15.60
2019-05-20T17:25:02.538Z,17.53
2019-05-20T17:28:05.586Z,16.57
2019-05-20T17:31:08.516Z,16.73
2019-05-20T17:34:11.449Z,17.60
2019-05-20T17:37:14.450Z,16.07
2019-05-20T17:40:18.387Z,16.53
2019-05-20T17:43:21.728Z,18.60
2019-05-20T17:46:25.757Z,15.97
2019-05-20T17:49:29.006Z,15.70
2019-05-20T17:52:31.912Z,16.53
2019-05-20T17:55:34.890Z,15.60
2019-05-20T17:58:38.036Z,15.70
2019-05-20T18:01:41.178Z,15.40
2019-05-20T18:04:44.129Z,15.93
2019-05-20T18:07:47.038Z,17.33
2019-05-20T18:10:49.979Z,20.40
2019-05-20T18:13:53.021Z,16.90
2019-05-20T18:16:56.584Z,17.70
2019-05-20T18:19:59.581Z,15.67
2019-05-20T18:23:02.516Z,16.27
2019-05-20T18:26:05.822Z,18.33
2019-05-20T18:29:08.771Z,16.70
2019-05-20T18:32:11.800Z,19.07
2019-05-20T18:35:14.704Z,18.47
2019-05-20T18:38:17.629Z,17.43
2019-05-20T18:41:20.761Z,19.70
2019-05-20T18:44:23.733Z,18.17
2019-05-20T18:47:26.665Z,18.10
2019-05-20T18:50:29.677Z,18.30
2019-05-20T18:53:32.949Z,18.27
2019-05-20T18:56:35.932Z,19.20
2019-05-20T18:59:38.984Z,18.80
2019-05-20T19:02:42.353Z,18.90
2019-05-20T19:05:45.439Z,18.50
2019-05-20T19:08:48.464Z,18.23
2019-05-20T19:11:51.377Z,19.77
2019-05-20T19:14:55.442Z,17.93
2019-05-20T19:17:58.394Z,18.87
2019-05-20T19:21:01.333Z,18.67
2019-05-20T19:24:04.681Z,19.00
2019-05-20T19:27:07.588Z,17.97
2019-05-20T19:30:10.844Z,16.70
2019-05-20T19:33:14.904Z,16.57
2019-05-20T19:36:17.849Z,19.23
2019-05-20T19:39:22.073Z,17.50
2019-05-20T19:42:25.376Z,17.37
2019-05-20T19:45:28.755Z,17.00
2019-05-20T19:48:31.799Z,16.03
2019-05-20T19:51:34.727Z,16.30
2019-05-20T19:54:37.637Z,17.57
2019-05-20T19:57:40.583Z,15.03
2019-05-20T20:00:43.599Z,16.27
2019-05-20T20:03:46.566Z,15.20
2019-05-20T20:06:49.661Z,15.63
2019-05-20T20:09:52.732Z,15.63
2019-05-20T20:12:55.631Z,15.17
2019-05-20T20:16:00.248Z,12.60
2019-05-20T20:19:03.209Z,14.57
2019-05-20T20:22:06.523Z,13.63
2019-05-20T20:25:09.652Z,14.17
2019-05-20T20:28:13.017Z,13.00
2019-05-20T20:31:16.358Z,12.43
2019-05-20T20:34:19.279Z,13.97
2019-05-20T20:37:22.194Z,13.07
2019-05-20T20:40:25.109Z,13.13
2019-05-20T20:43:28.119Z,14.27
2019-05-20T20:46:31.270Z,13.57
2019-05-20T20:49:34.356Z,13.40
2019-05-20T20:52:37.440Z,12.87
2019-05-20T20:55:40.364Z,13.50
2019-05-20T20:58:43.277Z,13.60
2019-05-20T21:01:46.859Z,13.87
2019-05-20T21:04:50.276Z,12.70
2019-05-20T21:07:53.514Z,14.27
2019-05-20T21:10:56.426Z,12.97
2019-05-20T21:13:59.337Z,15.00
2019-05-20T21:17:02.857Z,13.60
2019-05-20T21:20:06.155Z,14.63
2019-05-20T21:23:09.079Z,13.67
2019-05-20T21:26:11.999Z,14.07
2019-05-20T21:29:14.935Z,13.47
2019-05-20T21:32:17.883Z,12.43
2019-05-20T21:35:21.200Z,15.83
2019-05-20T21:38:24.109Z,12.83
2019-05-20T21:41:27.015Z,13.97
2019-05-20T21:44:30.004Z,13.83
2019-05-20T21:47:32.923Z,14.23
2019-05-20T21:50:35.835Z,13.20
2019-05-20T21:53:38.771Z,15.93
2019-05-20T21:56:41.670Z,16.30
2019-05-20T21:59:44.597Z,13.73
2019-05-20T22:02:47.510Z,15.20
2019-05-20T22:05:50.530Z,13.60
2019-05-20T22:08:53.817Z,13.60
2019-05-20T22:11:56.725Z,14.07
2019-05-20T22:14:59.654Z,17.00
2019-05-20T22:18:02.772Z,13.63
2019-05-20T22:21:07.368Z,15.87
2019-05-20T22:24:10.725Z,15.60
2019-05-20T22:27:13.941Z,16.73
2019-05-20T22:30:16.899Z,14.93
2019-05-20T22:33:19.814Z,15.37
2019-05-20T22:36:23.863Z,17.10
2019-05-20T22:39:26.768Z,15.73
2019-05-20T22:42:29.707Z,17.50
2019-05-20T22:45:32.662Z,17.10
2019-05-20T22:48:35.583Z,19.33
2019-05-20T22:51:38.522Z,20.33
2019-05-20T22:54:41.474Z,18.53
2019-05-20T22:57:44.724Z,18.20
2019-05-20T23:00:47.634Z,16.97
2019-05-20T23:03:56.374Z,18.60
2019-05-20T23:06:55.416Z,15.40
2019-05-20T23:09:58.323Z,14.50
2019-05-20T23:13:01.257Z,13.27
2019-05-20T23:16:04.185Z,16.37
2019-05-20T23:19:07.141Z,16.30
2019-05-20T23:22:10.059Z,16.23
2019-05-20T23:25:12.967Z,15.70
2019-05-20T23:28:16.223Z,15.27
2019-05-20T23:31:19.251Z,12.77
2019-05-20T23:34:22.171Z,14.10
2019-05-20T23:37:25.405Z,13.70
2019-05-20T23:40:28.329Z,11.60
2019-05-20T23:43:31.271Z,13.57
2019-05-20T23:46:34.180Z,12.90
2019-05-20T23:49:37.131Z,13.40
2019-05-20T23:52:40.102Z,11.00
2019-05-20T23:55:43.863Z,11.27
2019-05-20T23:58:47.200Z,11.00
